sensor_id;sensor_type;location;lat;lon;timestamp;pressure;altitude;pressure_sealevel;temperature;humidity
24858;BME280;12935;50.782;6.074;2023-11-22T00:00:07;100397.81;;;6.48;100.00
24858;BME280;12935;50.782;6.074;2023-11-22T00:02:32;100404.16;;;6.52;100.00
24858;BME280;12935;50.782;6.074;2023-11-22T00:04:58;100407.97;;;6.63;100.00
24858;BME280;12935;50.782;6.074;2023-11-22T00:07:23;100405.34;;;6.67;100.00
24858;BME280;12935;50.782;6.074;2023-11-22T00:09:48;100404.31;;;6.72;100.00
24858;BME280;12935;50.782;6.074;2023-11-22T00:12:13;100403.03;;;6.53;100.00
24858;BME280;12935;50.782;6.074;2023-11-22T00:14:42;100397.03;;;6.60;100.00
24858;BME280;12935;50.782;6.074;2023-11-22T00:17:07;100402.91;;;6.50;100.00
24858;BME280;12935;50.782;6.074;2023-11-22T00:19:32;100402.16;;;6.37;100.00
24858;BME280;12935;50.782;6.074;2023-11-22T00:21:58;100403.63;;;6.34;100.00
24858;BME280;12935;50.782;6.074;2023-11-22T00:24:24;100414.34;;;6.55;100.00
24858;BME280;12935;50.782;6.074;2023-11-22T00:26:49;100416.81;;;6.48;100.00
24858;BME280;12935;50.782;6.074;2023-11-22T00:29:14;100414.75;;;6.29;100.00
24858;BME280;12935;50.782;6.074;2023-11-22T00:31:40;100421.31;;;6.28;100.00
24858;BME280;12935;50.782;6.074;2023-11-22T00:34:05;100419.94;;;6.22;100.00
24858;BME280;12935;50.782;6.074;2023-11-22T00:36:30;100415.66;;;6.21;100.00
24858;BME280;12935;50.782;6.074;2023-11-22T00:38:56;100408.03;;;6.39;100.00
24858;BME280;12935;50.782;6.074;2023-11-22T00:41:21;100399.72;;;6.20;100.00
24858;BME280;12935;50.782;6.074;2023-11-22T00:43:46;100407.28;;;6.26;100.00
24858;BME280;12935;50.782;6.074;2023-11-22T00:46:12;100414.19;;;6.24;100.00
24858;BME280;12935;50.782;6.074;2023-11-22T00:48:37;100411.13;;;6.25;100.00
24858;BME280;12935;50.782;6.074;2023-11-22T00:51:03;100411.25;;;6.17;100.00
24858;BME280;12935;50.782;6.074;2023-11-22T00:53:34;100416.09;;;6.23;100.00
24858;BME280;12935;50.782;6.074;2023-11-22T00:55:59;100411.78;;;6.34;100.00
24858;BME280;12935;50.782;6.074;2023-11-22T00:58:24;100422.66;;;6.22;100.00
24858;BME280;12935;50.782;6.074;2023-11-22T01:00:50;100423.13;;;6.24;100.00
24858;BME280;12935;50.782;6.074;2023-11-22T01:03:15;100425.50;;;6.14;100.00
24858;BME280;12935;50.782;6.074;2023-11-22T01:05:40;100423.22;;;6.16;100.00
24858;BME280;12935;50.782;6.074;2023-11-22T01:08:07;100427.09;;;6.03;100.00
24858;BME280;12935;50.782;6.074;2023-11-22T01:10:32;100437.03;;;5.98;100.00
24858;BME280;12935;50.782;6.074;2023-11-22T01:12:58;100435.22;;;5.90;100.00
24858;BME280;12935;50.782;6.074;2023-11-22T01:15:23;100433.81;;;5.84;100.00
24858;BME280;12935;50.782;6.074;2023-11-22T01:17:49;100442.66;;;5.81;100.00
24858;BME280;12935;50.782;6.074;2023-11-22T01:20:15;100430.56;;;5.79;100.00
24858;BME280;12935;50.782;6.074;2023-11-22T01:22:40;100434.06;;;5.79;100.00
24858;BME280;12935;50.782;6.074;2023-11-22T01:25:06;100435.19;;;5.78;100.00
24858;BME280;12935;50.782;6.074;2023-11-22T01:27:31;100437.78;;;5.75;100.00
24858;BME280;12935;50.782;6.074;2023-11-22T01:29:56;100444.88;;;5.67;100.00
24858;BME280;12935;50.782;6.074;2023-11-22T01:32:22;100449.75;;;5.61;100.00
24858;BME280;12935;50.782;6.074;2023-11-22T01:34:47;100451.56;;;5.57;100.00
24858;BME280;12935;50.782;6.074;2023-11-22T01:37:13;100452.44;;;5.49;100.00
24858;BME280;12935;50.782;6.074;2023-11-22T01:39:41;100456.16;;;5.45;100.00
24858;BME280;12935;50.782;6.074;2023-11-22T01:42:07;100459.75;;;5.37;100.00
24858;BME280;12935;50.782;6.074;2023-11-22T01:44:32;100463.28;;;5.49;100.00
24858;BME280;12935;50.782;6.074;2023-11-22T01:46:58;100470.19;;;5.47;100.00
24858;BME280;12935;50.782;6.074;2023-11-22T01:49:23;100477.06;;;5.44;100.00
24858;BME280;12935;50.782;6.074;2023-11-22T01:51:49;100483.00;;;5.38;100.00
24858;BME280;12935;50.782;6.074;2023-11-22T01:54:15;100488.75;;;5.36;100.00
24858;BME280;12935;50.782;6.074;2023-11-22T01:56:40;100485.63;;;5.34;100.00
24858;BME280;12935;50.782;6.074;2023-11-22T01:59:06;100486.28;;;5.31;100.00
24858;BME280;12935;50.782;6.074;2023-11-22T02:01:32;100477.03;;;5.32;100.00
24858;BME280;12935;50.782;6.074;2023-11-22T02:03:58;100494.53;;;5.35;100.00
24858;BME280;12935;50.782;6.074;2023-11-22T02:06:24;100490.91;;;5.31;100.00
24858;BME280;12935;50.782;6.074;2023-11-22T02:08:49;100509.75;;;5.27;100.00
24858;BME280;12935;50.782;6.074;2023-11-22T02:11:18;100507.38;;;5.25;100.00
24858;BME280;12935;50.782;6.074;2023-11-22T02:13:51;100516.75;;;5.28;100.00
24858;BME280;12935;50.782;6.074;2023-11-22T02:16:17;100519.47;;;5.28;100.00
24858;BME280;12935;50.782;6.074;2023-11-22T02:18:46;100512.91;;;5.29;100.00
24858;BME280;12935;50.782;6.074;2023-11-22T02:21:12;100508.28;;;5.29;100.00
24858;BME280;12935;50.782;6.074;2023-11-22T02:23:37;100504.47;;;5.31;100.00
24858;BME280;12935;50.782;6.074;2023-11-22T02:26:03;100497.69;;;5.37;100.00
24858;BME280;12935;50.782;6.074;2023-11-22T02:28:28;100497.34;;;5.38;100.00
24858;BME280;12935;50.782;6.074;2023-11-22T02:30:54;100505.72;;;5.33;100.00
24858;BME280;12935;50.782;6.074;2023-11-22T02:33:20;100513.38;;;5.31;100.00
24858;BME280;12935;50.782;6.074;2023-11-22T02:35:45;100508.75;;;5.32;100.00
24858;BME280;12935;50.782;6.074;2023-11-22T02:38:10;100506.03;;;5.32;100.00
24858;BME280;12935;50.782;6.074;2023-11-22T02:40:35;100516.56;;;5.33;100.00
24858;BME280;12935;50.782;6.074;2023-11-22T02:43:01;100515.75;;;5.33;100.00
24858;BME280;12935;50.782;6.074;2023-11-22T02:45:30;100515.94;;;5.27;100.00
24858;BME280;12935;50.782;6.074;2023-11-22T02:47:56;100505.22;;;5.19;100.00
24858;BME280;12935;50.782;6.074;2023-11-22T02:50:21;100508.72;;;5.19;100.00
24858;BME280;12935;50.782;6.074;2023-11-22T02:52:47;100507.03;;;5.27;100.00
24858;BME280;12935;50.782;6.074;2023-11-22T02:55:12;100506.69;;;5.28;100.00
24858;BME280;12935;50.782;6.074;2023-11-22T02:57:38;100513.72;;;5.29;100.00
24858;BME280;12935;50.782;6.074;2023-11-22T03:00:06;100509.41;;;5.28;100.00
24858;BME280;12935;50.782;6.074;2023-11-22T03:02:32;100504.00;;;5.28;100.00
24858;BME280;12935;50.782;6.074;2023-11-22T03:04:58;100510.91;;;5.38;100.00
24858;BME280;12935;50.782;6.074;2023-11-22T03:07:24;100509.41;;;5.28;100.00
24858;BME280;12935;50.782;6.074;2023-11-22T03:09:50;100514.69;;;5.25;100.00
24858;BME280;12935;50.782;6.074;2023-11-22T03:12:16;100520.44;;;5.23;100.00
24858;BME280;12935;50.782;6.074;2023-11-22T03:14:41;100529.47;;;5.15;100.00
24858;BME280;12935;50.782;6.074;2023-11-22T03:17:07;100534.22;;;5.18;100.00
24858;BME280;12935;50.782;6.074;2023-11-22T03:19:33;100538.72;;;5.14;100.00
24858;BME280;12935;50.782;6.074;2023-11-22T03:22:01;100536.94;;;5.18;100.00
24858;BME280;12935;50.782;6.074;2023-11-22T03:24:28;100541.41;;;5.14;100.00
24858;BME280;12935;50.782;6.074;2023-11-22T03:26:54;100545.72;;;5.15;100.00
24858;BME280;12935;50.782;6.074;2023-11-22T03:29:21;100540.88;;;5.21;100.00
24858;BME280;12935;50.782;6.074;2023-11-22T03:31:46;100545.16;;;5.22;100.00
24858;BME280;12935;50.782;6.074;2023-11-22T03:34:12;100546.28;;;5.21;100.00
24858;BME280;12935;50.782;6.074;2023-11-22T03:36:40;100547.41;;;5.20;100.00
24858;BME280;12935;50.782;6.074;2023-11-22T03:39:05;100539.13;;;5.37;100.00
24858;BME280;12935;50.782;6.074;2023-11-22T03:41:31;100540.00;;;5.50;100.00
24858;BME280;12935;50.782;6.074;2023-11-22T03:43:56;100538.59;;;5.44;100.00
24858;BME280;12935;50.782;6.074;2023-11-22T03:46:21;100542.31;;;5.39;100.00
24858;BME280;12935;50.782;6.074;2023-11-22T03:48:46;100542.09;;;5.44;100.00
24858;BME280;12935;50.782;6.074;2023-11-22T03:51:12;100541.72;;;5.34;100.00
24858;BME280;12935;50.782;6.074;2023-11-22T03:53:37;100540.59;;;5.35;100.00
24858;BME280;12935;50.782;6.074;2023-11-22T03:56:02;100542.84;;;5.33;100.00
24858;BME280;12935;50.782;6.074;2023-11-22T03:58:28;100555.59;;;5.32;100.00
24858;BME280;12935;50.782;6.074;2023-11-22T04:00:53;100559.44;;;5.31;100.00
24858;BME280;12935;50.782;6.074;2023-11-22T04:03:18;100561.06;;;5.44;100.00
24858;BME280;12935;50.782;6.074;2023-11-22T04:05:44;100554.94;;;5.35;100.00
24858;BME280;12935;50.782;6.074;2023-11-22T04:08:09;100568.09;;;5.24;100.00
24858;BME280;12935;50.782;6.074;2023-11-22T04:10:35;100563.97;;;5.39;100.00
24858;BME280;12935;50.782;6.074;2023-11-22T04:13:00;100582.59;;;5.61;100.00
24858;BME280;12935;50.782;6.074;2023-11-22T04:15:25;100585.03;;;5.54;100.00
24858;BME280;12935;50.782;6.074;2023-11-22T04:17:52;100592.47;;;5.66;100.00
24858;BME280;12935;50.782;6.074;2023-11-22T04:20:19;100601.03;;;5.68;100.00
24858;BME280;12935;50.782;6.074;2023-11-22T04:22:45;100608.56;;;5.50;100.00
24858;BME280;12935;50.782;6.074;2023-11-22T04:25:10;100615.28;;;5.44;100.00
24858;BME280;12935;50.782;6.074;2023-11-22T04:27:39;100619.06;;;5.31;100.00
24858;BME280;12935;50.782;6.074;2023-11-22T04:30:08;100622.94;;;5.42;100.00
24858;BME280;12935;50.782;6.074;2023-11-22T04:32:36;100628.66;;;5.49;100.00
24858;BME280;12935;50.782;6.074;2023-11-22T04:35:02;100630.16;;;5.38;100.00
24858;BME280;12935;50.782;6.074;2023-11-22T04:37:29;100630.25;;;5.50;100.00
24858;BME280;12935;50.782;6.074;2023-11-22T04:39:57;100633.38;;;5.52;100.00
24858;BME280;12935;50.782;6.074;2023-11-22T04:42:22;100634.34;;;5.69;100.00
24858;BME280;12935;50.782;6.074;2023-11-22T04:44:47;100639.91;;;5.72;100.00
24858;BME280;12935;50.782;6.074;2023-11-22T04:47:12;100645.47;;;5.76;100.00
24858;BME280;12935;50.782;6.074;2023-11-22T04:49:38;100648.00;;;5.81;100.00
24858;BME280;12935;50.782;6.074;2023-11-22T04:52:03;100655.94;;;5.44;100.00
24858;BME280;12935;50.782;6.074;2023-11-22T04:54:29;100661.19;;;5.20;100.00
24858;BME280;12935;50.782;6.074;2023-11-22T04:56:54;100655.06;;;5.11;100.00
24858;BME280;12935;50.782;6.074;2023-11-22T04:59:19;100657.16;;;5.05;100.00
24858;BME280;12935;50.782;6.074;2023-11-22T05:01:45;100652.34;;;5.11;100.00
24858;BME280;12935;50.782;6.074;2023-11-22T05:04:10;100644.75;;;5.25;100.00
24858;BME280;12935;50.782;6.074;2023-11-22T05:06:35;100649.00;;;5.35;100.00
24858;BME280;12935;50.782;6.074;2023-11-22T05:09:01;100653.44;;;5.18;100.00
24858;BME280;12935;50.782;6.074;2023-11-22T05:11:26;100646.31;;;5.35;100.00
24858;BME280;12935;50.782;6.074;2023-11-22T05:13:52;100655.56;;;5.34;100.00
24858;BME280;12935;50.782;6.074;2023-11-22T05:16:17;100647.31;;;5.21;100.00
24858;BME280;12935;50.782;6.074;2023-11-22T05:18:42;100651.94;;;5.21;100.00
24858;BME280;12935;50.782;6.074;2023-11-22T05:21:08;100656.13;;;5.18;100.00
24858;BME280;12935;50.782;6.074;2023-11-22T05:23:33;100657.47;;;5.04;100.00
24858;BME280;12935;50.782;6.074;2023-11-22T05:25:58;100661.16;;;5.28;100.00
24858;BME280;12935;50.782;6.074;2023-11-22T05:28:27;100653.56;;;5.43;100.00
24858;BME280;12935;50.782;6.074;2023-11-22T05:30:52;100664.13;;;5.36;100.00
24858;BME280;12935;50.782;6.074;2023-11-22T05:33:18;100675.22;;;5.22;100.00
24858;BME280;12935;50.782;6.074;2023-11-22T05:35:43;100678.19;;;5.08;100.00
24858;BME280;12935;50.782;6.074;2023-11-22T05:38:08;100683.75;;;5.12;100.00
24858;BME280;12935;50.782;6.074;2023-11-22T05:40:35;100681.28;;;4.89;100.00
24858;BME280;12935;50.782;6.074;2023-11-22T05:43:00;100680.78;;;4.96;100.00
24858;BME280;12935;50.782;6.074;2023-11-22T05:45:25;100691.94;;;5.03;100.00
24858;BME280;12935;50.782;6.074;2023-11-22T05:47:51;100685.66;;;5.11;100.00
24858;BME280;12935;50.782;6.074;2023-11-22T05:50:17;100680.28;;;5.03;100.00
24858;BME280;12935;50.782;6.074;2023-11-22T05:52:43;100682.72;;;4.96;100.00
24858;BME280;12935;50.782;6.074;2023-11-22T05:55:09;100671.13;;;5.16;100.00
24858;BME280;12935;50.782;6.074;2023-11-22T05:57:35;100679.50;;;5.23;100.00
24858;BME280;12935;50.782;6.074;2023-11-22T06:00:00;100686.34;;;5.29;100.00
24858;BME280;12935;50.782;6.074;2023-11-22T06:02:26;100684.03;;;5.40;100.00
24858;BME280;12935;50.782;6.074;2023-11-22T06:04:51;100691.53;;;5.13;100.00
24858;BME280;12935;50.782;6.074;2023-11-22T06:07:16;100692.09;;;5.27;100.00
24858;BME280;12935;50.782;6.074;2023-11-22T06:09:42;100689.06;;;5.29;100.00
24858;BME280;12935;50.782;6.074;2023-11-22T06:12:07;100686.38;;;5.20;100.00
24858;BME280;12935;50.782;6.074;2023-11-22T06:14:32;100689.66;;;5.05;100.00
24858;BME280;12935;50.782;6.074;2023-11-22T06:16:57;100691.94;;;5.03;100.00
24858;BME280;12935;50.782;6.074;2023-11-22T06:19:24;100692.59;;;4.91;100.00
24858;BME280;12935;50.782;6.074;2023-11-22T06:21:49;100695.06;;;5.05;100.00
24858;BME280;12935;50.782;6.074;2023-11-22T06:24:15;100705.59;;;5.07;100.00
24858;BME280;12935;50.782;6.074;2023-11-22T06:26:42;100702.22;;;5.10;100.00
24858;BME280;12935;50.782;6.074;2023-11-22T06:29:08;100701.72;;;5.16;100.00
24858;BME280;12935;50.782;6.074;2023-11-22T06:31:33;100709.16;;;5.28;100.00
24858;BME280;12935;50.782;6.074;2023-11-22T06:33:59;100705.41;;;5.12;100.00
24858;BME280;12935;50.782;6.074;2023-11-22T06:36:26;100718.56;;;5.22;100.00
24858;BME280;12935;50.782;6.074;2023-11-22T06:38:53;100715.50;;;5.32;100.00
24858;BME280;12935;50.782;6.074;2023-11-22T06:41:18;100723.88;;;5.39;100.00
24858;BME280;12935;50.782;6.074;2023-11-22T06:43:43;100716.09;;;5.38;100.00
24858;BME280;12935;50.782;6.074;2023-11-22T06:46:08;100712.13;;;5.06;100.00
24858;BME280;12935;50.782;6.074;2023-11-22T06:48:34;100712.88;;;5.15;100.00
24858;BME280;12935;50.782;6.074;2023-11-22T06:50:59;100716.16;;;5.29;100.00
24858;BME280;12935;50.782;6.074;2023-11-22T06:53:24;100712.59;;;5.08;100.00
24858;BME280;12935;50.782;6.074;2023-11-22T06:55:50;100714.59;;;4.90;100.00
24858;BME280;12935;50.782;6.074;2023-11-22T06:58:16;100713.34;;;4.87;100.00
24858;BME280;12935;50.782;6.074;2023-11-22T07:00:43;100721.56;;;5.00;100.00
24858;BME280;12935;50.782;6.074;2023-11-22T07:03:09;100709.84;;;4.87;100.00
24858;BME280;12935;50.782;6.074;2023-11-22T07:05:35;100726.91;;;4.79;100.00
24858;BME280;12935;50.782;6.074;2023-11-22T07:08:01;100716.81;;;4.88;100.00
24858;BME280;12935;50.782;6.074;2023-11-22T07:10:27;100732.00;;;4.80;100.00
24858;BME280;12935;50.782;6.074;2023-11-22T07:12:52;100740.81;;;4.60;100.00
24858;BME280;12935;50.782;6.074;2023-11-22T07:15:17;100728.88;;;4.70;100.00
24858;BME280;12935;50.782;6.074;2023-11-22T07:17:43;100740.50;;;4.62;100.00
24858;BME280;12935;50.782;6.074;2023-11-22T07:20:08;100748.97;;;4.51;100.00
24858;BME280;12935;50.782;6.074;2023-11-22T07:22:37;100754.06;;;4.53;100.00
24858;BME280;12935;50.782;6.074;2023-11-22T07:25:03;100762.50;;;4.51;100.00
24858;BME280;12935;50.782;6.074;2023-11-22T07:27:28;100774.38;;;4.76;100.00
24858;BME280;12935;50.782;6.074;2023-11-22T07:29:54;100783.25;;;4.94;100.00
24858;BME280;12935;50.782;6.074;2023-11-22T07:32:19;100797.47;;;4.74;100.00
24858;BME280;12935;50.782;6.074;2023-11-22T07:34:46;100797.31;;;4.79;100.00
24858;BME280;12935;50.782;6.074;2023-11-22T07:37:12;100802.75;;;4.70;100.00
24858;BME280;12935;50.782;6.074;2023-11-22T07:39:38;100790.38;;;4.52;100.00
24858;BME280;12935;50.782;6.074;2023-11-22T07:42:05;100784.34;;;4.38;100.00
24858;BME280;12935;50.782;6.074;2023-11-22T07:44:34;100767.88;;;4.60;100.00
24858;BME280;12935;50.782;6.074;2023-11-22T07:47:01;100754.94;;;4.83;100.00
24858;BME280;12935;50.782;6.074;2023-11-22T07:49:27;100767.97;;;4.89;100.00
24858;BME280;12935;50.782;6.074;2023-11-22T07:51:52;100768.88;;;5.02;100.00
24858;BME280;12935;50.782;6.074;2023-11-22T07:54:21;100767.56;;;5.17;100.00
24858;BME280;12935;50.782;6.074;2023-11-22T07:56:50;100785.34;;;5.26;100.00
24858;BME280;12935;50.782;6.074;2023-11-22T07:59:17;100787.22;;;5.35;100.00
24858;BME280;12935;50.782;6.074;2023-11-22T08:01:43;100779.69;;;5.40;100.00
24858;BME280;12935;50.782;6.074;2023-11-22T08:04:13;100786.53;;;5.46;100.00
24858;BME280;12935;50.782;6.074;2023-11-22T08:06:38;100776.84;;;5.37;100.00
24858;BME280;12935;50.782;6.074;2023-11-22T08:09:03;100768.69;;;5.37;100.00
24858;BME280;12935;50.782;6.074;2023-11-22T08:11:30;100778.63;;;5.33;100.00
24858;BME280;12935;50.782;6.074;2023-11-22T08:13:56;100773.19;;;5.03;100.00
24858;BME280;12935;50.782;6.074;2023-11-22T08:16:24;100753.78;;;4.92;100.00
24858;BME280;12935;50.782;6.074;2023-11-22T08:18:49;100762.38;;;4.94;100.00
24858;BME280;12935;50.782;6.074;2023-11-22T08:21:16;100756.00;;;4.90;100.00
24858;BME280;12935;50.782;6.074;2023-11-22T08:23:41;100752.44;;;5.07;100.00
24858;BME280;12935;50.782;6.074;2023-11-22T08:26:06;100761.59;;;5.23;100.00
24858;BME280;12935;50.782;6.074;2023-11-22T08:28:33;100761.38;;;5.37;100.00
24858;BME280;12935;50.782;6.074;2023-11-22T08:30:59;100754.00;;;5.46;100.00
24858;BME280;12935;50.782;6.074;2023-11-22T08:33:26;100754.81;;;5.38;100.00
24858;BME280;12935;50.782;6.074;2023-11-22T08:35:51;100766.44;;;5.47;100.00
24858;BME280;12935;50.782;6.074;2023-11-22T08:38:23;100775.75;;;5.58;100.00
24858;BME280;12935;50.782;6.074;2023-11-22T08:40:48;100790.50;;;5.70;100.00
24858;BME280;12935;50.782;6.074;2023-11-22T08:43:13;100795.91;;;5.78;100.00
24858;BME280;12935;50.782;6.074;2023-11-22T08:45:39;100801.56;;;5.85;100.00
24858;BME280;12935;50.782;6.074;2023-11-22T08:48:04;100796.63;;;5.87;100.00
24858;BME280;12935;50.782;6.074;2023-11-22T08:50:29;100803.16;;;5.95;100.00
24858;BME280;12935;50.782;6.074;2023-11-22T08:52:54;100813.41;;;5.60;100.00
24858;BME280;12935;50.782;6.074;2023-11-22T08:55:23;100819.84;;;5.47;100.00
24858;BME280;12935;50.782;6.074;2023-11-22T08:57:49;100825.72;;;5.19;100.00
24858;BME280;12935;50.782;6.074;2023-11-22T09:00:17;100836.50;;;4.81;100.00
24858;BME280;12935;50.782;6.074;2023-11-22T09:02:48;100839.38;;;4.68;100.00
24858;BME280;12935;50.782;6.074;2023-11-22T09:05:13;100842.91;;;4.68;100.00
24858;BME280;12935;50.782;6.074;2023-11-22T09:07:42;100833.63;;;4.86;100.00
24858;BME280;12935;50.782;6.074;2023-11-22T09:10:10;100853.47;;;5.16;100.00
24858;BME280;12935;50.782;6.074;2023-11-22T09:12:38;100858.50;;;5.35;100.00
24858;BME280;12935;50.782;6.074;2023-11-22T09:15:08;100865.94;;;5.38;100.00
24858;BME280;12935;50.782;6.074;2023-11-22T09:17:38;100854.09;;;5.51;100.00
24858;BME280;12935;50.782;6.074;2023-11-22T09:20:14;100855.13;;;5.68;100.00
24858;BME280;12935;50.782;6.074;2023-11-22T09:22:48;100856.03;;;5.80;100.00
24858;BME280;12935;50.782;6.074;2023-11-22T09:25:15;100856.50;;;5.82;100.00
24858;BME280;12935;50.782;6.074;2023-11-22T09:27:42;100857.81;;;5.76;100.00
24858;BME280;12935;50.782;6.074;2023-11-22T09:30:11;100839.38;;;5.32;100.00
24858;BME280;12935;50.782;6.074;2023-11-22T09:32:44;100832.91;;;5.07;100.00
24858;BME280;12935;50.782;6.074;2023-11-22T09:35:09;100826.22;;;5.13;100.00
24858;BME280;12935;50.782;6.074;2023-11-22T09:37:34;100832.41;;;5.51;100.00
24858;BME280;12935;50.782;6.074;2023-11-22T09:40:00;100836.25;;;5.80;100.00
24858;BME280;12935;50.782;6.074;2023-11-22T09:42:26;100835.56;;;5.83;100.00
24858;BME280;12935;50.782;6.074;2023-11-22T09:44:52;100836.94;;;5.68;100.00
24858;BME280;12935;50.782;6.074;2023-11-22T09:47:18;100843.78;;;5.74;100.00
24858;BME280;12935;50.782;6.074;2023-11-22T09:49:46;100846.88;;;5.93;100.00
24858;BME280;12935;50.782;6.074;2023-11-22T09:52:18;100844.72;;;6.08;100.00
24858;BME280;12935;50.782;6.074;2023-11-22T09:54:48;100847.16;;;6.21;100.00
24858;BME280;12935;50.782;6.074;2023-11-22T09:57:17;100831.72;;;6.34;100.00
24858;BME280;12935;50.782;6.074;2023-11-22T09:59:44;100821.34;;;6.36;100.00
24858;BME280;12935;50.782;6.074;2023-11-22T10:02:11;100822.91;;;6.37;100.00
24858;BME280;12935;50.782;6.074;2023-11-22T10:04:37;100840.81;;;6.38;100.00
24858;BME280;12935;50.782;6.074;2023-11-22T10:07:03;100850.72;;;6.55;100.00
24858;BME280;12935;50.782;6.074;2023-11-22T10:09:29;100848.94;;;6.59;100.00
24858;BME280;12935;50.782;6.074;2023-11-22T10:11:58;100837.75;;;6.40;100.00
24858;BME280;12935;50.782;6.074;2023-11-22T10:14:23;100840.53;;;6.52;100.00
24858;BME280;12935;50.782;6.074;2023-11-22T10:17:00;100844.13;;;6.44;100.00
24858;BME280;12935;50.782;6.074;2023-11-22T10:19:27;100850.31;;;6.03;100.00
24858;BME280;12935;50.782;6.074;2023-11-22T10:22:06;100842.91;;;5.91;100.00
24858;BME280;12935;50.782;6.074;2023-11-22T10:24:32;100850.88;;;5.87;100.00
24858;BME280;12935;50.782;6.074;2023-11-22T10:27:01;100838.38;;;6.24;100.00
24858;BME280;12935;50.782;6.074;2023-11-22T10:29:28;100839.84;;;6.55;100.00
24858;BME280;12935;50.782;6.074;2023-11-22T10:31:54;100839.09;;;6.66;100.00
24858;BME280;12935;50.782;6.074;2023-11-22T10:34:23;100836.53;;;6.70;100.00
24858;BME280;12935;50.782;6.074;2023-11-22T10:36:49;100827.53;;;6.90;100.00
24858;BME280;12935;50.782;6.074;2023-11-22T10:39:19;100837.41;;;7.07;100.00
24858;BME280;12935;50.782;6.074;2023-11-22T10:41:46;100835.13;;;7.09;100.00
24858;BME280;12935;50.782;6.074;2023-11-22T10:44:11;100845.75;;;6.90;100.00
24858;BME280;12935;50.782;6.074;2023-11-22T10:46:39;100848.31;;;6.74;100.00
24858;BME280;12935;50.782;6.074;2023-11-22T10:49:04;100855.50;;;6.58;100.00
24858;BME280;12935;50.782;6.074;2023-11-22T10:51:31;100852.81;;;6.70;100.00
24858;BME280;12935;50.782;6.074;2023-11-22T10:53:58;100869.06;;;6.58;100.00
24858;BME280;12935;50.782;6.074;2023-11-22T10:56:26;100859.84;;;6.50;100.00
24858;BME280;12935;50.782;6.074;2023-11-22T10:58:56;100860.78;;;6.54;100.00
24858;BME280;12935;50.782;6.074;2023-11-22T11:01:26;100861.94;;;6.86;100.00
24858;BME280;12935;50.782;6.074;2023-11-22T11:06:34;100844.91;;;6.77;100.00
24858;BME280;12935;50.782;6.074;2023-11-22T11:09:06;100848.31;;;6.74;100.00
24858;BME280;12935;50.782;6.074;2023-11-22T11:11:35;100848.03;;;6.67;100.00
24858;BME280;12935;50.782;6.074;2023-11-22T11:14:04;100848.31;;;6.74;100.00
24858;BME280;12935;50.782;6.074;2023-11-22T11:16:33;100860.50;;;6.68;100.00
24858;BME280;12935;50.782;6.074;2023-11-22T11:19:02;100856.84;;;6.97;100.00
24858;BME280;12935;50.782;6.074;2023-11-22T11:21:28;100856.47;;;7.31;100.00
24858;BME280;12935;50.782;6.074;2023-11-22T11:23:54;100853.09;;;7.34;100.00
24858;BME280;12935;50.782;6.074;2023-11-22T11:26:24;100846.13;;;7.13;100.00
24858;BME280;12935;50.782;6.074;2023-11-22T11:28:51;100836.16;;;7.04;100.00
24858;BME280;12935;50.782;6.074;2023-11-22T11:31:21;100831.13;;;7.39;100.00
24858;BME280;12935;50.782;6.074;2023-11-22T11:36:29;100813.53;;;7.61;100.00
24858;BME280;12935;50.782;6.074;2023-11-22T11:38:58;100815.69;;;7.56;100.00
24858;BME280;12935;50.782;6.074;2023-11-22T11:41:30;100812.19;;;7.67;100.00
24858;BME280;12935;50.782;6.074;2023-11-22T11:43:58;100819.16;;;7.93;100.00
24858;BME280;12935;50.782;6.074;2023-11-22T11:46:23;100807.19;;;8.34;100.00
24858;BME280;12935;50.782;6.074;2023-11-22T11:48:52;100804.19;;;7.99;100.00
24858;BME280;12935;50.782;6.074;2023-11-22T11:51:19;100790.66;;;7.50;100.00
24858;BME280;12935;50.782;6.074;2023-11-22T11:53:45;100791.22;;;7.44;100.00
24858;BME280;12935;50.782;6.074;2023-11-22T11:56:12;100788.28;;;7.49;100.00
24858;BME280;12935;50.782;6.074;2023-11-22T11:58:38;100775.13;;;7.26;100.00
24858;BME280;12935;50.782;6.074;2023-11-22T12:01:05;100790.53;;;7.22;100.00
24858;BME280;12935;50.782;6.074;2023-11-22T12:03:32;100795.97;;;7.34;100.00
24858;BME280;12935;50.782;6.074;2023-11-22T12:05:57;100796.19;;;7.29;100.00
24858;BME280;12935;50.782;6.074;2023-11-22T12:08:23;100814.22;;;7.22;100.00
24858;BME280;12935;50.782;6.074;2023-11-22T12:10:48;100811.13;;;7.11;100.00
24858;BME280;12935;50.782;6.074;2023-11-22T12:13:20;100823.25;;;7.14;100.00
24858;BME280;12935;50.782;6.074;2023-11-22T12:15:47;100806.84;;;7.34;100.00
24858;BME280;12935;50.782;6.074;2023-11-22T12:18:12;100798.91;;;7.29;100.00
24858;BME280;12935;50.782;6.074;2023-11-22T12:20:39;100780.00;;;7.33;100.00
24858;BME280;12935;50.782;6.074;2023-11-22T12:23:04;100767.78;;;7.39;100.00
24858;BME280;12935;50.782;6.074;2023-11-22T12:25:32;100751.66;;;7.46;100.00
24858;BME280;12935;50.782;6.074;2023-11-22T12:27:58;100729.72;;;7.79;100.00
24858;BME280;12935;50.782;6.074;2023-11-22T12:30:33;100717.56;;;7.89;100.00
24858;BME280;12935;50.782;6.074;2023-11-22T12:33:06;100714.63;;;7.54;100.00
24858;BME280;12935;50.782;6.074;2023-11-22T12:35:34;100712.56;;;7.51;100.00
24858;BME280;12935;50.782;6.074;2023-11-22T12:38:01;100711.84;;;7.66;100.00
24858;BME280;12935;50.782;6.074;2023-11-22T12:40:30;100710.22;;;7.25;100.00
24858;BME280;12935;50.782;6.074;2023-11-22T12:43:02;100703.78;;;7.05;100.00
24858;BME280;12935;50.782;6.074;2023-11-22T12:45:30;100701.72;;;7.14;100.00
24858;BME280;12935;50.782;6.074;2023-11-22T12:47:57;100691.66;;;7.02;100.00
24858;BME280;12935;50.782;6.074;2023-11-22T12:53:10;100691.78;;;6.82;100.00